Time;durP1;ratioP1;P1;durP2;ratioP2;P2;SDS_P1;SDS_P2;PMS_P1;PMS_P2;Temp;Humidity;BMP_temperature;BMP_pressure;BME280_temperature;BME280_humidity;BME280_pressure;Samples;Min_cycle;Max_cycle;Signal;HPM_P1;HPM_P2
2021/01/22 00:00:53;;;;;;;3.15;1.20;;;;;;;4.94;54.17;98173.34;5071881;28;20389;-71
2021/01/22 00:03:20;;;;;;;6.32;1.48;;;;;;;4.91;53.93;98170.94;5073728;28;20079;-71
2021/01/22 00:05:46;;;;;;;6.20;1.77;;;;;;;4.96;53.95;98166.31;5071727;28;20033;-72
2021/01/22 00:08:11;;;;;;;3.30;1.13;;;;;;;5.02;54.07;98166.78;5056008;28;20043;-74
2021/01/22 00:10:37;;;;;;;6.50;1.60;;;;;;;5.03;53.65;98162.44;5069823;28;20028;-73
2021/01/22 00:13:02;;;;;;;5.88;1.30;;;;;;;4.92;53.82;98157.94;5073758;28;20710;-74
2021/01/22 00:15:28;;;;;;;4.03;1.52;;;;;;;4.72;54.14;98148.72;5075421;28;20302;-73
2021/01/22 00:17:53;;;;;;;3.42;1.35;;;;;;;4.98;54.00;98149.78;5072905;28;20039;-75
2021/01/22 00:20:19;;;;;;;3.83;1.23;;;;;;;4.94;53.71;98142.28;5076178;28;20128;-72
2021/01/22 00:22:44;;;;;;;3.80;1.73;;;;;;;4.82;53.91;98139.47;5072732;28;20117;-74
2021/01/22 00:25:10;;;;;;;2.67;1.17;;;;;;;4.86;54.11;98136.72;5076571;28;20064;-73
2021/01/22 00:27:36;;;;;;;6.95;1.60;;;;;;;4.86;54.30;98128.97;5071358;28;20040;-73
2021/01/22 00:30:03;;;;;;;5.78;1.38;;;;;;;4.94;53.85;98119.81;5074782;28;20166;-74
2021/01/22 00:32:28;;;;;;;4.63;1.00;;;;;;;4.88;53.93;98121.94;5074155;28;20032;-74
2021/01/22 00:34:54;;;;;;;4.07;1.48;;;;;;;4.83;54.35;98120.47;5067562;28;20059;-69
2021/01/22 00:37:20;;;;;;;3.45;1.65;;;;;;;4.57;54.64;98113.41;5068265;28;20463;-69
2021/01/22 00:39:45;;;;;;;5.07;1.67;;;;;;;4.69;54.39;98107.50;5066653;28;20280;-75
2021/01/22 00:42:11;;;;;;;5.35;1.95;;;;;;;4.56;55.11;98106.56;5074569;28;20508;-74
2021/01/22 00:44:36;;;;;;;2.92;1.42;;;;;;;4.53;55.09;98105.00;5069119;28;20358;-76
2021/01/22 00:47:02;;;;;;;1.70;1.10;;;;;;;4.52;54.79;98093.00;5076586;28;20025;-77
2021/01/22 00:49:27;;;;;;;4.82;1.75;;;;;;;4.64;55.13;98088.84;5075638;28;20067;-76
2021/01/22 00:51:53;;;;;;;2.05;1.23;;;;;;;4.76;54.66;98079.50;5071503;28;20143;-75
2021/01/22 00:54:18;;;;;;;6.63;1.85;;;;;;;4.73;54.23;98079.69;5070312;28;20054;-76
2021/01/22 00:57:02;;;;;;;5.00;1.67;;;;;;;4.48;55.16;98077.75;5073602;28;20070;-76
2021/01/22 00:59:28;;;;;;;4.10;1.55;;;;;;;4.58;54.96;98081.44;5074617;28;20086;-76
2021/01/22 01:01:54;;;;;;;1.67;1.02;;;;;;;4.64;54.61;98078.47;5070311;28;20032;-76
2021/01/22 01:04:19;;;;;;;2.55;1.23;;;;;;;4.24;55.76;98073.09;5073817;28;20032;-76
2021/01/22 01:07:06;;;;;;;4.72;1.45;;;;;;;4.29;55.38;98078.81;5071804;28;20024;-77
2021/01/22 01:09:32;;;;;;;3.63;1.50;;;;;;;4.38;55.15;98078.25;5074922;28;20578;-77
2021/01/22 01:12:20;;;;;;;2.50;1.20;;;;;;;4.31;55.20;98082.16;5070289;28;20106;-71
2021/01/22 01:15:06;;;;;;;2.05;0.75;;;;;;;4.32;54.73;98089.00;5071847;28;20115;-71
2021/01/22 01:17:37;;;;;;;7.28;0.88;;;;;;;3.90;55.79;98064.72;5066369;28;20032;-72
2021/01/22 01:20:04;;;;;;;2.47;0.98;;;;;;;3.54;56.32;98076.19;5070212;28;20047;-72
2021/01/22 01:22:30;;;;;;;2.00;0.40;;;;;;;3.41;56.12;98085.53;5071467;28;20531;-71
2021/01/22 01:24:55;;;;;;;0.90;0.20;;;;;;;3.37;56.71;98053.06;5070793;28;20028;-73
2021/01/22 01:27:21;;;;;;;1.77;0.20;;;;;;;3.68;55.30;98067.66;5072888;28;20458;-73
2021/01/22 01:29:46;;;;;;;0.75;0.25;;;;;;;3.40;56.36;98086.44;5069117;28;20401;-73
2021/01/22 01:32:12;;;;;;;1.98;0.32;;;;;;;3.65;55.46;98075.59;5073093;28;20137;-73
2021/01/22 01:34:37;;;;;;;0.55;0.10;;;;;;;3.46;56.14;98077.53;5067235;28;20430;-73
2021/01/22 01:37:02;;;;;;;0.40;0.10;;;;;;;3.38;56.25;98077.94;5070104;28;20106;-73
2021/01/22 01:39:28;;;;;;;1.77;0.22;;;;;;;3.45;56.21;98076.72;5072556;28;20029;-73
2021/01/22 01:41:53;;;;;;;0.90;0.35;;;;;;;3.15;56.40;98074.84;5071411;28;20064;-74
2021/01/22 01:44:19;;;;;;;3.92;0.30;;;;;;;2.70;57.37;98078.13;5072502;28;20066;-73
2021/01/22 01:46:44;;;;;;;0.90;0.00;;;;;;;2.94;57.13;98086.31;5068458;28;20032;-73
2021/01/22 01:49:10;;;;;;;0.38;0.20;;;;;;;3.08;56.38;98094.16;5071547;28;20025;-73
2021/01/22 01:51:36;;;;;;;1.30;0.10;;;;;;;2.82;56.95;98085.19;5067510;28;20088;-73
2021/01/22 01:54:02;;;;;;;1.02;0.10;;;;;;;2.77;56.67;98090.59;5072229;28;20404;-73
2021/01/22 01:56:28;;;;;;;1.60;0.10;;;;;;;2.82;56.25;98092.13;5071048;28;20033;-73
2021/01/22 01:58:53;;;;;;;1.75;0.00;;;;;;;2.55;56.92;98090.91;5071022;28;20040;-73
2021/01/22 02:01:20;;;;;;;0.40;0.00;;;;;;;3.01;55.59;98087.66;5073574;28;20515;-73
2021/01/22 02:03:46;;;;;;;1.50;0.10;;;;;;;2.88;55.72;98086.63;5075977;28;20031;-73
2021/01/22 02:06:11;;;;;;;0.30;0.00;;;;;;;2.77;55.50;98097.53;5076142;28;20036;-72
2021/01/22 02:08:38;;;;;;;4.03;0.10;;;;;;;2.52;56.29;98101.38;5081727;22;20048;-69
2021/01/22 02:11:06;;;;;;;0.00;0.00;;;;;;;2.51;55.97;98109.16;5063439;28;20573;-69
2021/01/22 02:13:33;;;;;;;0.70;0.10;;;;;;;2.42;56.32;98118.22;5065988;28;20024;-69
2021/01/22 02:16:00;;;;;;;0.47;0.10;;;;;;;2.41;55.67;98115.72;5064366;28;20039;-73
2021/01/22 02:18:26;;;;;;;1.20;0.10;;;;;;;2.32;56.24;98119.59;5066436;28;20105;-68
2021/01/22 02:21:03;;;;;;;2.00;0.00;;;;;;;2.43;56.29;98121.63;5062275;28;21294;-68
2021/01/22 02:23:32;;;;;;;0.50;0.08;;;;;;;2.75;55.50;98138.84;5066527;28;20431;-70
2021/01/22 02:26:29;;;;;;;1.63;0.30;;;;;;;2.84;55.13;98141.88;5063602;28;20265;-70
2021/01/22 02:29:03;;;;;;;0.90;0.00;;;;;;;2.73;55.28;98145.88;5034711;28;20056;-71
2021/01/22 02:31:31;;;;;;;4.70;0.60;;;;;;;2.59;55.67;98143.13;5061712;28;20130;-71
2021/01/22 02:34:02;;;;;;;0.30;0.00;;;;;;;2.21;56.69;98143.31;5063991;28;20445;-71
2021/01/22 02:36:31;;;;;;;0.95;0.55;;;;;;;2.50;55.80;98147.00;5062355;28;20178;-70
2021/01/22 02:38:59;;;;;;;0.10;0.03;;;;;;;2.50;55.74;98149.59;5083469;28;20119;-71
2021/01/22 02:41:27;;;;;;;0.20;0.00;;;;;;;2.41;55.64;98152.63;5064065;28;20041;-70
2021/01/22 02:43:53;;;;;;;1.33;0.00;;;;;;;2.48;55.69;98158.31;5060486;28;20040;-70
2021/01/22 02:46:20;;;;;;;0.20;0.10;;;;;;;2.52;55.94;98167.56;5062936;28;20032;-69
2021/01/22 02:48:47;;;;;;;0.03;0.00;;;;;;;2.00;57.50;98170.09;5062617;28;20032;-72
2021/01/22 02:51:13;;;;;;;0.00;0.00;;;;;;;2.34;56.45;98174.47;5061796;28;20707;-72
2021/01/22 02:53:39;;;;;;;0.00;0.00;;;;;;;2.45;56.09;98189.41;5066728;28;20033;-72
2021/01/22 02:56:22;;;;;;;1.48;0.00;;;;;;;2.28;56.89;98196.22;5060431;28;20028;-71
2021/01/22 02:58:56;;;;;;;0.00;0.00;;;;;;;2.14;57.50;98201.22;5063565;28;20062;-72
2021/01/22 03:01:27;;;;;;;0.30;0.00;;;;;;;2.11;57.46;98203.94;5061882;28;20037;-72
2021/01/22 03:04:07;;;;;;;0.40;0.08;;;;;;;1.75;58.06;98211.63;5062999;28;20047;-73
2021/01/22 03:06:39;;;;;;;0.35;0.00;;;;;;;2.10;57.12;98207.41;5080863;28;20286;-72
2021/01/22 03:09:09;;;;;;;0.32;0.00;;;;;;;2.25;56.27;98203.28;5063361;28;20032;-74
2021/01/22 03:11:35;;;;;;;0.03;0.00;;;;;;;2.09;56.33;98213.50;5077571;28;20111;-73
2021/01/22 03:14:03;;;;;;;0.40;0.10;;;;;;;2.30;56.00;98209.88;5044379;28;20112;-72
2021/01/22 03:16:32;;;;;;;0.17;0.00;;;;;;;2.37;56.08;98214.72;5061290;28;20041;-72
2021/01/22 03:19:03;;;;;;;0.57;0.00;;;;;;;1.89;57.08;98250.50;5045605;28;20051;-74
2021/01/22 03:21:28;;;;;;;0.43;0.03;;;;;;;1.62;58.10;98257.75;5048576;28;20115;-71
2021/01/22 03:23:54;;;;;;;2.03;0.00;;;;;;;2.06;57.19;98236.81;5060705;28;20119;-72
2021/01/22 03:26:20;;;;;;;0.00;0.00;;;;;;;1.90;57.72;98257.31;5062639;28;20083;-72
2021/01/22 03:28:45;;;;;;;0.50;0.00;;;;;;;1.06;59.16;98254.97;5060993;28;20135;-73
2021/01/22 03:31:11;;;;;;;4.55;0.10;;;;;;;1.65;57.93;98261.00;5082508;28;20032;-72
2021/01/22 03:33:36;;;;;;;0.43;0.00;;;;;;;2.02;57.37;98243.88;5065310;28;20085;-73
2021/01/22 03:36:03;;;;;;;3.65;0.10;;;;;;;2.47;56.07;98241.75;5059579;28;20441;-72
2021/01/22 03:38:28;;;;;;;4.25;0.10;;;;;;;1.70;58.14;98258.22;5064088;28;20055;-72
2021/01/22 03:40:54;;;;;;;1.85;0.10;;;;;;;1.94;57.74;98263.97;5058696;28;20159;-72
2021/01/22 03:43:19;;;;;;;2.25;0.10;;;;;;;2.04;57.27;98278.13;5062280;28;20082;-72
2021/01/22 03:45:45;;;;;;;0.30;0.22;;;;;;;1.96;57.33;98276.81;5059826;28;20119;-72
2021/01/22 03:48:10;;;;;;;1.65;0.30;;;;;;;2.20;56.85;98272.22;5064394;28;20122;-71
2021/01/22 03:50:36;;;;;;;2.08;0.40;;;;;;;1.45;59.25;98269.59;5063730;28;20032;-72
2021/01/22 03:53:01;;;;;;;1.67;0.10;;;;;;;2.15;57.24;98272.44;5061448;28;20025;-72
2021/01/22 03:55:27;;;;;;;1.10;0.15;;;;;;;1.67;58.29;98287.50;5064933;28;20079;-72
2021/01/22 03:57:52;;;;;;;0.35;0.13;;;;;;;1.13;60.37;98295.84;5064221;28;20083;-72
2021/01/22 04:00:18;;;;;;;0.85;0.10;;;;;;;1.09;59.97;98306.28;5064039;28;20082;-72
2021/01/22 04:02:43;;;;;;;3.88;0.20;;;;;;;2.08;57.46;98304.56;5059261;28;20076;-71
2021/01/22 04:05:09;;;;;;;2.47;0.55;;;;;;;2.08;56.83;98291.69;5059800;28;20037;-72
2021/01/22 04:07:35;;;;;;;1.90;0.10;;;;;;;1.50;58.66;98295.97;5059921;28;20037;-71
2021/01/22 04:10:00;;;;;;;2.40;0.10;;;;;;;1.74;57.80;98303.53;5061392;28;20404;-72
2021/01/22 04:12:26;;;;;;;1.48;0.15;;;;;;;2.41;55.97;98302.16;5074196;28;20033;-72
2021/01/22 04:14:51;;;;;;;0.65;0.10;;;;;;;2.24;56.69;98297.81;5061813;28;20037;-72
2021/01/22 04:17:17;;;;;;;1.17;0.10;;;;;;;2.34;56.45;98295.63;5061657;28;20075;-72
2021/01/22 04:19:43;;;;;;;0.17;0.03;;;;;;;1.79;57.68;98295.59;5062668;28;20039;-72
2021/01/22 04:22:09;;;;;;;3.13;0.05;;;;;;;1.81;57.65;98304.91;5060472;28;20039;-71
2021/01/22 04:24:35;;;;;;;3.03;0.28;;;;;;;1.76;57.85;98306.88;5059405;28;20112;-70
2021/01/22 04:27:00;;;;;;;2.05;0.10;;;;;;;1.93;57.54;98313.84;5060614;28;20024;-71
2021/01/22 04:29:26;;;;;;;1.13;0.10;;;;;;;2.20;56.83;98322.06;5078265;28;20123;-73
2021/01/22 04:31:51;;;;;;;5.25;0.10;;;;;;;2.02;57.60;98322.88;5059048;28;21359;-73
2021/01/22 04:34:17;;;;;;;0.65;0.20;;;;;;;1.71;58.16;98324.28;5058566;28;20040;-72
2021/01/22 04:36:42;;;;;;;0.75;0.10;;;;;;;1.87;57.67;98330.41;5041608;28;20268;-73
2021/01/22 04:39:08;;;;;;;0.75;0.30;;;;;;;1.89;57.58;98341.47;5077125;28;20056;-71
2021/01/22 04:41:34;;;;;;;0.65;0.10;;;;;;;1.78;58.08;98350.59;5059817;28;20036;-70
2021/01/22 04:44:01;;;;;;;0.45;0.10;;;;;;;1.90;57.43;98350.88;5061354;28;20017;-71
2021/01/22 04:46:31;;;;;;;1.05;0.10;;;;;;;1.73;58.02;98355.94;5060178;28;20035;-71
2021/01/22 04:48:56;;;;;;;0.65;0.05;;;;;;;2.07;57.15;98362.19;5063016;28;20056;-70
2021/01/22 04:51:24;;;;;;;1.55;0.17;;;;;;;1.34;59.05;98361.84;5062318;28;20500;-71
2021/01/22 04:53:53;;;;;;;2.58;0.28;;;;;;;1.14;59.59;98365.25;5073823;28;20075;-71
2021/01/22 04:56:21;;;;;;;1.48;0.20;;;;;;;1.96;57.41;98367.81;5065591;28;20052;-71
2021/01/22 04:58:51;;;;;;;1.85;0.17;;;;;;;1.81;57.51;98369.31;5059742;28;20112;-71
2021/01/22 05:01:17;;;;;;;1.25;0.40;;;;;;;1.93;57.40;98376.50;5058057;28;20051;-71
2021/01/22 05:03:43;;;;;;;1.23;0.30;;;;;;;1.75;57.78;98386.75;5059900;28;20035;-71
2021/01/22 05:06:08;;;;;;;2.80;0.20;;;;;;;0.78;60.95;98380.44;5057006;28;20301;-71
2021/01/22 05:08:34;;;;;;;0.85;0.10;;;;;;;1.10;60.01;98390.28;5060337;28;20429;-70
2021/01/22 05:10:59;;;;;;;4.10;0.10;;;;;;;1.03;59.62;98388.84;5061619;28;20044;-70
2021/01/22 05:13:25;;;;;;;3.20;0.57;;;;;;;1.52;58.36;98392.00;5065464;28;20438;-71
2021/01/22 05:16:10;;;;;;;2.47;0.22;;;;;;;1.44;58.80;98394.06;5056569;28;20037;-72
2021/01/22 05:18:36;;;;;;;0.95;0.20;;;;;;;2.08;57.09;98399.91;5060154;28;20324;-74
2021/01/22 05:21:20;;;;;;;1.00;0.25;;;;;;;1.64;58.53;98395.81;5061333;28;20052;-74
2021/01/22 05:23:46;;;;;;;1.88;0.20;;;;;;;1.28;59.53;98408.44;5059920;28;20037;-73
2021/01/22 05:26:16;;;;;;;1.08;0.20;;;;;;;1.52;58.15;98415.16;5061883;28;20027;-73
2021/01/22 05:28:46;;;;;;;0.73;0.20;;;;;;;1.81;57.57;98418.25;5060525;28;20116;-73
2021/01/22 05:31:13;;;;;;;3.17;0.47;;;;;;;1.40;58.92;98418.25;5060498;28;20027;-73
2021/01/22 05:33:40;;;;;;;1.75;0.25;;;;;;;1.56;58.44;98423.59;5060381;28;20029;-71
2021/01/22 05:36:26;;;;;;;0.25;0.10;;;;;;;1.88;57.56;98423.97;5061542;28;20085;-71
2021/01/22 05:38:54;;;;;;;1.42;0.43;;;;;;;1.13;59.38;98432.19;5070389;28;20704;-70
2021/01/22 05:41:19;;;;;;;1.88;0.45;;;;;;;1.32;59.35;98440.88;5065094;28;20448;-70
2021/01/22 05:43:46;;;;;;;8.25;0.93;;;;;;;1.19;59.35;98445.66;5067464;28;20060;-70
2021/01/22 05:46:17;;;;;;;3.08;0.40;;;;;;;1.58;57.87;98457.03;5068662;28;20036;-69
2021/01/22 05:48:43;;;;;;;0.77;0.10;;;;;;;0.89;60.18;98442.59;5067171;28;20159;-69
2021/01/22 05:51:11;;;;;;;0.93;0.30;;;;;;;1.60;58.26;98457.78;5064208;28;20542;-70
2021/01/22 05:53:45;;;;;;;2.25;0.40;;;;;;;1.10;59.51;98464.91;5065571;28;20025;-70
2021/01/22 05:56:11;;;;;;;2.53;1.15;;;;;;;1.44;58.31;98461.00;5063396;28;20047;-70
2021/01/22 05:58:39;;;;;;;1.20;0.30;;;;;;;1.68;57.71;98466.03;5070411;28;20067;-72
2021/01/22 06:01:20;;;;;;;4.20;0.63;;;;;;;1.35;58.35;98474.22;5064626;28;20275;-73
2021/01/22 06:03:53;;;;;;;2.83;0.30;;;;;;;1.04;59.11;98478.00;5065100;28;20624;-73
2021/01/22 06:06:20;;;;;;;3.47;0.57;;;;;;;0.87;59.43;98481.22;5054369;28;20301;-73
2021/01/22 06:08:53;;;;;;;3.35;0.40;;;;;;;1.13;59.00;98473.38;5069996;28;20036;-73
2021/01/22 06:11:24;;;;;;;4.57;0.65;;;;;;;0.98;59.49;98496.22;5065728;28;20032;-73
2021/01/22 06:13:51;;;;;;;1.38;0.22;;;;;;;0.81;60.15;98481.44;5069116;28;20032;-73
2021/01/22 06:16:20;;;;;;;2.38;0.50;;;;;;;1.32;58.46;98493.16;5067207;28;20036;-71
2021/01/22 06:18:48;;;;;;;1.02;0.40;;;;;;;0.88;59.79;98502.63;5067466;28;20111;-71
2021/01/22 06:21:17;;;;;;;4.65;0.70;;;;;;;1.06;59.63;98491.63;5066842;28;20463;-72
2021/01/22 06:23:45;;;;;;;4.45;1.20;;;;;;;0.81;59.93;98506.31;5063527;28;20091;-72
2021/01/22 06:26:12;;;;;;;3.45;1.10;;;;;;;1.11;59.64;98506.91;5062644;28;20032;-72
2021/01/22 06:28:39;;;;;;;6.78;1.10;;;;;;;1.02;59.45;98513.22;5067566;28;20032;-72
2021/01/22 06:31:08;;;;;;;1.48;0.95;;;;;;;0.76;60.84;98511.63;5062751;28;20025;-71
2021/01/22 06:33:34;;;;;;;5.15;1.10;;;;;;;0.97;59.70;98504.84;5062712;28;20036;-69
2021/01/22 06:36:00;;;;;;;5.63;1.35;;;;;;;1.01;60.04;98518.44;5067191;28;20647;-69
2021/01/22 06:38:26;;;;;;;2.92;1.08;;;;;;;1.08;59.59;98515.56;5065187;28;20064;-69
2021/01/22 06:40:52;;;;;;;1.55;0.68;;;;;;;0.96;59.74;98516.03;5065230;28;20115;-69
2021/01/22 06:43:19;;;;;;;2.83;0.93;;;;;;;0.29;62.08;98516.78;5064391;28;20412;-70
2021/01/22 06:45:44;;;;;;;5.43;1.10;;;;;;;0.60;61.40;98524.22;5066879;28;20086;-70
2021/01/22 06:48:10;;;;;;;7.22;1.40;;;;;;;0.34;62.29;98526.88;5061427;28;20032;-69
2021/01/22 06:50:39;;;;;;;9.60;1.52;;;;;;;0.64;61.17;98530.94;5063515;28;20422;-69
2021/01/22 06:53:09;;;;;;;5.32;1.58;;;;;;;0.30;62.36;98535.59;5062710;28;20024;-70
2021/01/22 06:55:50;;;;;;;5.25;1.92;;;;;;;0.76;60.84;98529.63;5059770;28;20068;-71
2021/01/22 06:58:28;;;;;;;5.35;2.38;;;;;;;0.89;60.49;98541.16;5063020;28;20067;-71
2021/01/22 07:00:56;;;;;;;13.40;2.22;;;;;;;0.63;61.29;98534.38;5061047;28;20381;-72
2021/01/22 07:03:37;;;;;;;5.88;2.38;;;;;;;0.89;60.47;98545.47;5061614;28;20028;-70
2021/01/22 07:06:04;;;;;;;4.15;1.90;;;;;;;0.25;62.17;98549.44;5061428;28;20103;-70
2021/01/22 07:08:48;;;;;;;13.23;2.38;;;;;;;0.59;61.11;98563.69;5062615;28;20074;-71
2021/01/22 07:11:14;;;;;;;5.35;2.05;;;;;;;0.74;60.77;98553.72;5075883;28;20030;-71
2021/01/22 07:13:42;;;;;;;10.18;1.92;;;;;;;1.19;59.58;98563.19;5062385;28;20316;-72
2021/01/22 07:16:18;;;;;;;7.88;2.63;;;;;;;0.37;62.07;98565.34;5063306;28;20028;-72
2021/01/22 07:18:55;;;;;;;9.95;3.53;;;;;;;0.76;61.22;98560.50;5061375;28;20036;-70
2021/01/22 07:21:28;;;;;;;8.43;3.38;;;;;;;0.89;60.51;98566.88;5080087;28;20047;-73
2021/01/22 07:23:56;;;;;;;12.60;2.97;;;;;;;1.10;59.81;98572.09;5077325;28;20033;-71
2021/01/22 07:26:33;;;;;;;10.43;3.72;;;;;;;0.72;60.37;98573.53;5061166;28;20438;-71
2021/01/22 07:29:13;;;;;;;6.68;2.60;;;;;;;1.40;59.02;98587.28;5064016;28;20020;-71
2021/01/22 07:31:50;;;;;;;7.45;2.72;;;;;;;0.69;61.54;98587.31;5061856;28;20032;-71
2021/01/22 07:34:43;;;;;;;16.25;3.38;;;;;;;0.69;62.00;98593.31;5063783;28;20386;-71
2021/01/22 07:37:16;;;;;;;16.20;4.05;;;;;;;1.13;60.17;98597.72;5062351;28;20059;-71
2021/01/22 07:39:42;;;;;;;8.43;4.40;;;;;;;0.54;62.23;98598.97;5065863;28;20040;-70
2021/01/22 07:42:20;;;;;;;7.40;3.03;;;;;;;0.84;61.45;98598.81;5062603;28;20486;-71
2021/01/22 07:44:49;;;;;;;11.63;3.97;;;;;;;0.71;61.17;98597.56;5062663;28;20034;-71
2021/01/22 07:47:28;;;;;;;17.33;6.22;;;;;;;1.09;60.87;98609.03;5060114;28;20094;-71
2021/01/22 07:50:02;;;;;;;7.68;4.47;;;;;;;1.08;60.66;98610.75;5059847;28;20025;-72
2021/01/22 07:52:28;;;;;;;18.40;4.85;;;;;;;0.42;62.82;98607.13;5062528;28;20032;-71
2021/01/22 07:54:54;;;;;;;11.13;3.83;;;;;;;1.75;58.52;98623.69;5061309;28;20076;-71
2021/01/22 07:57:25;;;;;;;10.60;5.40;;;;;;;0.54;61.24;98601.56;5064216;28;20024;-71
2021/01/22 07:59:52;;;;;;;16.27;5.88;;;;;;;1.04;60.44;98614.34;5058208;28;20024;-71
2021/01/22 08:02:19;;;;;;;12.23;4.40;;;;;;;0.77;61.09;98617.91;5060842;28;20040;-71
2021/01/22 08:04:55;;;;;;;12.73;4.18;;;;;;;0.15;63.14;98638.00;5059310;28;20435;-71
2021/01/22 08:07:40;;;;;;;14.43;4.32;;;;;;;0.95;60.35;98627.53;5059995;28;20029;-71
2021/01/22 08:10:11;;;;;;;9.98;3.90;;;;;;;1.08;59.98;98625.34;5061748;28;20044;-70
2021/01/22 08:12:39;;;;;;;11.70;3.97;;;;;;;1.13;59.78;98631.19;5063141;28;20067;-71
2021/01/22 08:15:14;;;;;;;9.95;4.97;;;;;;;1.41;58.94;98636.13;5059899;28;20035;-70
2021/01/22 08:17:48;;;;;;;18.27;4.65;;;;;;;1.22;60.25;98635.16;5044734;28;20283;-71
2021/01/22 08:20:15;;;;;;;12.93;4.40;;;;;;;1.01;60.14;98639.34;5061586;28;20039;-70
2021/01/22 08:22:41;;;;;;;13.32;4.05;;;;;;;1.45;58.99;98647.19;5057181;28;20037;-70
2021/01/22 08:25:08;;;;;;;20.17;5.00;;;;;;;1.59;58.22;98649.22;5061649;28;20393;-70
2021/01/22 08:27:33;;;;;;;11.98;4.38;;;;;;;1.89;57.86;98658.31;5058823;28;20036;-70
2021/01/22 08:30:00;;;;;;;12.30;4.68;;;;;;;1.91;57.45;98656.53;5059583;28;20161;-69
2021/01/22 08:32:28;;;;;;;11.15;4.55;;;;;;;2.03;56.89;98651.78;5060106;28;20032;-73
2021/01/22 08:34:55;;;;;;;10.02;4.90;;;;;;;2.10;56.61;98668.66;5056264;28;20090;-69
2021/01/22 08:37:21;;;;;;;16.95;5.07;;;;;;;2.70;54.76;98673.94;5055565;28;20044;-69
2021/01/22 08:39:58;;;;;;;13.52;4.32;;;;;;;1.66;57.62;98671.25;5057309;28;20035;-70
2021/01/22 08:42:25;;;;;;;9.40;4.35;;;;;;;1.42;58.66;98673.88;5055318;28;20699;-70
2021/01/22 08:45:02;;;;;;;14.57;4.55;;;;;;;1.51;58.87;98672.69;5071286;28;20032;-71
2021/01/22 08:47:30;;;;;;;8.00;3.20;;;;;;;1.37;59.10;98680.88;5054880;28;20062;-72
2021/01/22 08:50:00;;;;;;;12.52;4.07;;;;;;;1.57;58.55;98692.22;5056307;28;20033;-71
2021/01/22 08:52:27;;;;;;;10.20;4.72;;;;;;;2.10;57.25;98684.13;5043537;28;20316;-72
2021/01/22 08:54:57;;;;;;;10.05;4.65;;;;;;;1.88;56.87;98692.69;5055446;28;20486;-69
2021/01/22 08:57:24;;;;;;;14.07;4.32;;;;;;;2.62;55.13;98684.56;5057561;28;20040;-70
2021/01/22 08:59:57;;;;;;;12.82;5.05;;;;;;;2.02;57.64;98699.06;5055601;28;20036;-70
2021/01/22 09:02:37;;;;;;;12.55;4.38;;;;;;;2.45;55.95;98695.59;5039350;28;20117;-70
2021/01/22 09:05:05;;;;;;;18.45;5.13;;;;;;;2.08;57.09;98703.97;5042051;28;20037;-72
2021/01/22 09:07:30;;;;;;;16.48;4.05;;;;;;;2.65;55.48;98715.41;5057243;28;20036;-72
2021/01/22 09:09:55;;;;;;;6.07;3.40;;;;;;;3.13;54.58;98703.88;5053047;28;20036;-72
2021/01/22 09:12:26;;;;;;;9.50;3.50;;;;;;;2.62;54.51;98715.50;5060179;28;20029;-71
2021/01/22 09:14:57;;;;;;;9.80;3.88;;;;;;;3.66;52.56;98719.66;5056773;28;20037;-72
2021/01/22 09:17:38;;;;;;;9.13;2.77;;;;;;;2.50;54.93;98709.13;5053556;28;20043;-70
2021/01/22 09:20:06;;;;;;;8.63;3.27;;;;;;;3.07;54.05;98719.66;5073632;28;20051;-71
2021/01/22 09:22:33;;;;;;;8.23;3.25;;;;;;;3.23;53.80;98729.31;5057901;28;20032;-71
2021/01/22 09:25:00;;;;;;;5.70;3.35;;;;;;;3.33;52.67;98726.25;5057349;28;20477;-69
2021/01/22 09:27:25;;;;;;;9.68;2.95;;;;;;;2.55;55.00;98734.72;5056174;28;20393;-69
2021/01/22 09:29:51;;;;;;;10.30;2.72;;;;;;;3.52;52.86;98739.22;5054886;28;20033;-70
2021/01/22 09:32:17;;;;;;;12.25;3.20;;;;;;;3.94;51.88;98739.88;5059086;28;20704;-70
2021/01/22 09:34:42;;;;;;;5.18;2.75;;;;;;;3.64;52.83;98737.81;5053171;28;20062;-70
2021/01/22 09:37:08;;;;;;;6.85;2.70;;;;;;;3.69;51.92;98735.84;5053942;28;20332;-69
2021/01/22 09:39:34;;;;;;;10.13;2.83;;;;;;;3.16;53.60;98737.31;5054681;28;20039;-72
2021/01/22 09:41:59;;;;;;;10.18;2.97;;;;;;;3.50;53.38;98746.19;5055314;28;20181;-72
2021/01/22 09:44:25;;;;;;;10.07;2.70;;;;;;;2.92;53.93;98752.09;5058593;28;20485;-71
2021/01/22 09:46:50;;;;;;;9.18;2.33;;;;;;;3.45;53.26;98755.88;5059276;28;20040;-72
2021/01/22 09:49:15;;;;;;;4.63;1.88;;;;;;;2.75;55.74;98762.28;5058438;28;20040;-72
2021/01/22 09:51:41;;;;;;;10.40;2.70;;;;;;;3.36;53.12;98754.53;5052698;28;20047;-73
2021/01/22 09:54:07;;;;;;;14.40;2.40;;;;;;;3.65;52.10;98756.72;5056683;28;20076;-71
2021/01/22 09:56:32;;;;;;;4.50;2.05;;;;;;;2.97;53.52;98767.38;5055530;28;20105;-69
2021/01/22 09:58:58;;;;;;;5.43;2.30;;;;;;;3.12;53.83;98776.22;5069839;28;20055;-71
2021/01/22 10:01:23;;;;;;;5.85;3.05;;;;;;;3.38;53.33;98780.28;5058852;28;20362;-72
2021/01/22 10:03:49;;;;;;;5.32;2.10;;;;;;;2.70;54.57;98798.59;5055929;28;20031;-72
2021/01/22 10:06:14;;;;;;;9.52;2.75;;;;;;;3.57;53.95;98791.50;5048223;28;20467;-71
2021/01/22 10:08:40;;;;;;;4.70;1.65;;;;;;;4.31;51.28;98790.72;5054313;28;20052;-71
2021/01/22 10:11:05;;;;;;;6.65;2.17;;;;;;;4.19;51.36;98779.19;5055062;28;20036;-71
2021/01/22 10:13:31;;;;;;;8.63;2.97;;;;;;;4.16;51.18;98789.69;5054122;28;20070;-72
2021/01/22 10:15:57;;;;;;;5.63;2.30;;;;;;;4.29;51.94;98799.44;5054682;28;20036;-72
2021/01/22 10:18:23;;;;;;;4.78;1.88;;;;;;;4.42;50.22;98805.72;5059243;28;20064;-72
2021/01/22 10:20:49;;;;;;;5.78;2.33;;;;;;;3.68;51.84;98803.94;5055851;28;20628;-68
2021/01/22 10:23:15;;;;;;;7.20;1.98;;;;;;;4.45;50.36;98802.16;5056879;28;20032;-70
2021/01/22 10:25:40;;;;;;;4.65;1.83;;;;;;;3.86;51.77;98802.28;5060471;28;20416;-69
2021/01/22 10:28:06;;;;;;;11.68;2.55;;;;;;;3.59;52.92;98807.75;5058225;28;20032;-70
2021/01/22 10:30:31;;;;;;;11.00;1.98;;;;;;;3.08;53.44;98816.81;5076412;28;20032;-70
2021/01/22 10:32:57;;;;;;;7.32;1.80;;;;;;;2.92;54.15;98810.63;5061196;28;23284;-69
2021/01/22 10:35:22;;;;;;;5.82;1.80;;;;;;;3.55;52.91;98819.13;5058550;28;20067;-70
2021/01/22 10:37:48;;;;;;;10.45;3.20;;;;;;;3.09;54.47;98813.34;5057813;28;20042;-70
2021/01/22 10:40:13;;;;;;;11.95;2.55;;;;;;;3.42;53.26;98812.81;5060382;28;20052;-70
2021/01/22 10:42:39;;;;;;;7.75;1.95;;;;;;;3.85;52.33;98808.38;5054761;28;20036;-68
2021/01/22 10:45:05;;;;;;;8.43;2.05;;;;;;;4.41;51.81;98811.81;5059872;28;20123;-68
2021/01/22 10:47:31;;;;;;;10.85;2.42;;;;;;;3.87;52.09;98816.84;5058562;28;20024;-69
2021/01/22 10:49:56;;;;;;;7.40;1.70;;;;;;;3.92;51.99;98830.44;5058794;28;20561;-69
2021/01/22 10:52:22;;;;;;;8.77;2.03;;;;;;;4.13;51.64;98822.59;5057732;28;20366;-69
2021/01/22 10:54:47;;;;;;;9.95;2.00;;;;;;;3.41;53.34;98833.56;5058244;28;20024;-69
2021/01/22 10:57:13;;;;;;;7.07;2.15;;;;;;;2.94;54.94;98839.78;5059349;28;20518;-70
2021/01/22 10:59:39;;;;;;;9.55;2.53;;;;;;;3.72;52.81;98844.25;5059669;28;20115;-70
2021/01/22 11:02:08;;;;;;;4.80;1.65;;;;;;;3.29;53.55;98834.91;5056599;28;20039;-69
2021/01/22 11:04:34;;;;;;;11.73;1.80;;;;;;;3.79;52.75;98845.63;5061454;28;20423;-70
2021/01/22 11:07:00;;;;;;;12.48;1.98;;;;;;;2.82;54.13;98856.56;5072985;28;20024;-69
2021/01/22 11:09:26;;;;;;;6.28;1.48;;;;;;;3.18;53.20;98843.09;5061279;28;20043;-70
2021/01/22 11:11:52;;;;;;;7.55;1.90;;;;;;;3.45;52.81;98841.13;5055254;28;21824;-70
2021/01/22 11:14:17;;;;;;;9.48;2.50;;;;;;;3.69;52.85;98856.44;5060829;28;20051;-69
2021/01/22 11:16:43;;;;;;;6.60;1.40;;;;;;;2.37;55.07;98854.06;5076095;28;20737;-70
2021/01/22 11:19:08;;;;;;;10.88;1.67;;;;;;;2.97;53.96;98862.88;5058571;28;20493;-70
2021/01/22 11:21:34;;;;;;;6.97;1.45;;;;;;;2.94;53.71;98866.41;5060356;28;20116;-69
2021/01/22 11:24:00;;;;;;;16.20;1.88;;;;;;;3.40;53.37;98868.88;5057627;28;20521;-69
2021/01/22 11:26:26;;;;;;;7.85;2.22;;;;;;;3.92;51.91;98858.03;5053626;28;20078;-69
2021/01/22 11:28:52;;;;;;;11.43;2.22;;;;;;;3.32;52.85;98855.44;5055821;28;20033;-69
2021/01/22 11:31:17;;;;;;;13.07;1.23;;;;;;;3.48;52.53;98869.38;5060557;28;20043;-68
2021/01/22 11:33:44;;;;;;;7.43;1.67;;;;;;;3.80;51.68;98856.81;5055169;28;20033;-68
2021/01/22 11:36:10;;;;;;;9.57;1.95;;;;;;;3.85;52.34;98860.03;5057753;28;20037;-68
2021/01/22 11:38:36;;;;;;;14.18;2.22;;;;;;;4.12;50.49;98859.69;5056172;28;20051;-69
2021/01/22 11:41:01;;;;;;;9.65;2.15;;;;;;;4.31;49.94;98855.34;5058975;28;20533;-71
2021/01/22 11:43:26;;;;;;;14.95;2.22;;;;;;;5.11;48.22;98859.34;5056155;28;20075;-70